Time;durP1;ratioP1;P1;durP2;ratioP2;P2;SDS_P1;SDS_P2;PMS_P1;PMS_P2;Temp;Humidity;BMP_temperature;BMP_pressure;BME280_temperature;BME280_humidity;BME280_pressure;Samples;Min_cycle;Max_cycle;Signal;HPM_P1;HPM_P2
2023/04/17 00:00:17;;;;;;;9.75;7.13;;;;;;;;;;8326660;28;20563;-59
2023/04/17 00:04:20;;;;;;;15.05;7.45;;;;;;;;;;8328898;28;20029;-59
2023/04/17 00:08:21;;;;;;;8.57;6.97;;;;;;;;;;8329568;28;20044;-59
2023/04/17 00:12:21;;;;;;;8.80;7.18;;;;;;;;;;8329522;28;20032;-59
2023/04/17 00:16:21;;;;;;;8.82;6.70;;;;;;;;;;8327800;28;20952;-59
2023/04/17 00:20:21;;;;;;;9.20;7.32;;;;;;;;;;8327250;28;20119;-59
2023/04/17 00:24:21;;;;;;;9.63;7.78;;;;;;;;;;8326389;28;20013;-59
2023/04/17 00:28:22;;;;;;;10.90;7.75;;;;;;;;;;8329898;28;20025;-59
2023/04/17 00:32:22;;;;;;;10.73;8.00;;;;;;;;;;8328747;28;20103;-59
2023/04/17 00:36:22;;;;;;;9.77;7.50;;;;;;;;;;8328105;28;20036;-59
2023/04/17 00:40:22;;;;;;;10.40;7.82;;;;;;;;;;8329651;28;20021;-59
2023/04/17 00:44:22;;;;;;;9.45;7.85;;;;;;;;;;8326604;28;20531;-59
2023/04/17 00:48:23;;;;;;;10.43;7.72;;;;;;;;;;8327602;28;20040;-59
2023/04/17 00:52:27;;;;;;;8.23;6.75;;;;;;;;;;8325451;28;20031;-59
2023/04/17 00:56:28;;;;;;;9.75;7.32;;;;;;;;;;8330172;28;20028;-59
2023/04/17 01:00:28;;;;;;;9.32;7.93;;;;;;;;;;8327126;28;20129;-59
2023/04/17 01:04:28;;;;;;;9.48;8.05;;;;;;;;;;8328470;28;20025;-60
2023/04/17 01:08:36;;;;;;;11.65;8.35;;;;;;;;;;8326136;28;20040;-59
2023/04/17 01:12:37;;;;;;;10.07;7.80;;;;;;;;;;8326712;28;20036;-59
2023/04/17 01:16:38;;;;;;;10.45;7.88;;;;;;;;;;8327478;28;20389;-59
2023/04/17 01:20:39;;;;;;;10.73;8.48;;;;;;;;;;8326087;28;20052;-59
2023/04/17 01:24:39;;;;;;;11.98;8.77;;;;;;;;;;8324912;28;20033;-59
2023/04/17 01:28:40;;;;;;;9.35;7.07;;;;;;;;;;8329474;28;20033;-59
2023/04/17 01:32:40;;;;;;;13.20;9.45;;;;;;;;;;8327376;28;20037;-59
2023/04/17 01:36:41;;;;;;;11.40;9.00;;;;;;;;;;8326618;28;20845;-59
2023/04/17 01:40:41;;;;;;;12.83;10.07;;;;;;;;;;8326203;28;20021;-59
2023/04/17 01:44:41;;;;;;;14.60;10.15;;;;;;;;;;8326460;28;21041;-59
2023/04/17 01:48:41;;;;;;;13.52;10.00;;;;;;;;;;8326137;28;20060;-60
2023/04/17 01:52:41;;;;;;;15.07;9.20;;;;;;;;;;8326286;28;20018;-59
2023/04/17 01:56:41;;;;;;;11.60;9.18;;;;;;;;;;8327479;28;20915;-60
2023/04/17 02:00:44;;;;;;;12.70;9.18;;;;;;;;;;8330058;28;20041;-60
2023/04/17 02:04:44;;;;;;;11.40;8.73;;;;;;;;;;8324279;28;20020;-59
2023/04/17 02:08:45;;;;;;;12.13;9.35;;;;;;;;;;8324015;28;20025;-60
2023/04/17 02:12:45;;;;;;;11.68;9.25;;;;;;;;;;8324785;28;20032;-60
2023/04/17 02:16:45;;;;;;;12.02;9.52;;;;;;;;;;8328375;28;20536;-59
2023/04/17 02:20:45;;;;;;;9.98;8.68;;;;;;;;;;8326803;28;20037;-59
2023/04/17 02:24:45;;;;;;;11.93;9.40;;;;;;;;;;8327158;28;20562;-59
2023/04/17 02:28:46;;;;;;;12.63;9.60;;;;;;;;;;8329537;28;20068;-59
2023/04/17 02:32:46;;;;;;;11.68;9.02;;;;;;;;;;8308810;28;20898;-59
2023/04/17 02:36:46;;;;;;;12.00;8.65;;;;;;;;;;8299955;28;20472;-59
2023/04/17 02:40:46;;;;;;;11.35;8.90;;;;;;;;;;8294782;28;20030;-59
2023/04/17 02:44:46;;;;;;;10.18;8.70;;;;;;;;;;8300404;28;20025;-59
2023/04/17 02:48:46;;;;;;;10.65;8.90;;;;;;;;;;8299682;28;20119;-59
2023/04/17 02:52:47;;;;;;;12.30;9.10;;;;;;;;;;8297881;28;20410;-59
2023/04/17 02:56:47;;;;;;;10.07;8.68;;;;;;;;;;8298429;28;20080;-59
2023/04/17 03:00:47;;;;;;;10.70;8.75;;;;;;;;;;8297908;28;20030;-59
2023/04/17 03:04:49;;;;;;;11.05;8.82;;;;;;;;;;8299296;28;20033;-59
2023/04/17 03:08:49;;;;;;;11.00;8.52;;;;;;;;;;8299316;28;21968;-59
2023/04/17 03:12:49;;;;;;;12.60;8.95;;;;;;;;;;8297410;28;20618;-59
2023/04/17 03:16:49;;;;;;;13.30;9.20;;;;;;;;;;8299718;28;20062;-59
2023/04/17 03:20:50;;;;;;;10.45;8.35;;;;;;;;;;8298781;28;20026;-59
2023/04/17 03:24:50;;;;;;;11.18;8.55;;;;;;;;;;8294263;28;20056;-59
2023/04/17 03:28:50;;;;;;;14.23;10.05;;;;;;;;;;8296546;28;20134;-59
2023/04/17 03:32:50;;;;;;;13.60;10.40;;;;;;;;;;8295648;28;20152;-59
2023/04/17 03:36:50;;;;;;;13.27;10.75;;;;;;;;;;8296864;28;20044;-60
2023/04/17 03:40:51;;;;;;;16.25;11.73;;;;;;;;;;8297922;28;20989;-59
2023/04/17 03:44:51;;;;;;;15.48;11.68;;;;;;;;;;8299122;28;20026;-59
2023/04/17 03:48:51;;;;;;;15.07;11.47;;;;;;;;;;8295474;28;20132;-59
2023/04/17 03:52:51;;;;;;;16.65;11.13;;;;;;;;;;8295909;28;20331;-59
2023/04/17 03:56:52;;;;;;;13.43;10.57;;;;;;;;;;8295411;28;20022;-59
2023/04/17 04:00:54;;;;;;;12.88;10.57;;;;;;;;;;8302563;28;20040;-59
2023/04/17 04:04:54;;;;;;;15.07;10.70;;;;;;;;;;8331509;28;20025;-59
2023/04/17 04:08:55;;;;;;;12.77;10.27;;;;;;;;;;8327901;28;20029;-59
2023/04/17 04:12:55;;;;;;;12.82;10.60;;;;;;;;;;8331482;28;20027;-59
2023/04/17 04:16:56;;;;;;;14.47;10.27;;;;;;;;;;8330528;28;20124;-59
2023/04/17 04:20:56;;;;;;;14.18;10.98;;;;;;;;;;8327170;28;20046;-59
2023/04/17 04:24:56;;;;;;;16.05;11.48;;;;;;;;;;8328336;28;20111;-59
2023/04/17 04:28:59;;;;;;;15.83;11.27;;;;;;;;;;8331587;28;20036;-60
2023/04/17 04:32:59;;;;;;;14.63;11.05;;;;;;;;;;8305762;28;20315;-60
2023/04/17 04:37:00;;;;;;;13.63;10.85;;;;;;;;;;8293614;28;20033;-59
2023/04/17 04:41:00;;;;;;;13.27;10.30;;;;;;;;;;8295647;28;20029;-59
2023/04/17 04:45:00;;;;;;;13.70;10.10;;;;;;;;;;8292074;28;20016;-59
2023/04/17 04:49:00;;;;;;;13.48;10.13;;;;;;;;;;8291654;28;20283;-60
2023/04/17 04:53:00;;;;;;;15.68;11.63;;;;;;;;;;8291749;28;20036;-59
2023/04/17 04:57:01;;;;;;;14.75;11.15;;;;;;;;;;8293829;28;20089;-59
2023/04/17 05:01:01;;;;;;;14.57;10.88;;;;;;;;;;8294233;28;20145;-60
2023/04/17 05:05:01;;;;;;;12.88;10.35;;;;;;;;;;8291591;28;20387;-59
2023/04/17 05:09:01;;;;;;;14.25;10.70;;;;;;;;;;8290481;28;20029;-59
2023/04/17 05:13:02;;;;;;;13.90;10.90;;;;;;;;;;8293089;28;20056;-59
2023/04/17 05:17:02;;;;;;;14.27;10.85;;;;;;;;;;8289763;28;20036;-59
2023/04/17 05:21:02;;;;;;;14.70;11.23;;;;;;;;;;8287468;28;20029;-59
2023/04/17 05:25:03;;;;;;;17.52;12.05;;;;;;;;;;8292273;28;20279;-58
2023/04/17 05:29:03;;;;;;;14.50;10.85;;;;;;;;;;8288005;28;20025;-59
2023/04/17 05:33:03;;;;;;;16.15;11.02;;;;;;;;;;8296186;28;20038;-58
2023/04/17 05:37:04;;;;;;;14.15;11.63;;;;;;;;;;8294133;28;20022;-58
2023/04/17 05:41:06;;;;;;;15.63;11.48;;;;;;;;;;8295246;28;20041;-59
2023/04/17 05:45:06;;;;;;;15.55;11.93;;;;;;;;;;8295195;28;20022;-58
2023/04/17 05:49:06;;;;;;;14.20;11.15;;;;;;;;;;8292139;28;20034;-58
2023/04/17 05:53:07;;;;;;;14.00;11.00;;;;;;;;;;8295871;28;20024;-58
2023/04/17 05:57:07;;;;;;;13.40;10.88;;;;;;;;;;8293627;28;20086;-58
2023/04/17 06:01:07;;;;;;;18.08;12.15;;;;;;;;;;8291565;28;20057;-59
2023/04/17 06:05:08;;;;;;;17.25;11.35;;;;;;;;;;8302017;28;20114;-59
2023/04/17 06:09:09;;;;;;;14.80;11.40;;;;;;;;;;8296659;28;20041;-58
2023/04/17 06:13:10;;;;;;;15.68;11.85;;;;;;;;;;8302046;28;20034;-59
2023/04/17 06:17:11;;;;;;;14.65;11.50;;;;;;;;;;8299505;28;20043;-58
2023/04/17 06:21:11;;;;;;;14.48;11.13;;;;;;;;;;8299874;28;20034;-59
2023/04/17 06:25:11;;;;;;;15.60;11.88;;;;;;;;;;8300475;28;20048;-59
2023/04/17 06:29:12;;;;;;;15.70;11.48;;;;;;;;;;8298494;28;20026;-59
2023/04/17 06:33:13;;;;;;;16.75;12.23;;;;;;;;;;8294059;28;20048;-59
2023/04/17 06:37:13;;;;;;;14.82;11.88;;;;;;;;;;8288421;28;20033;-59
2023/04/17 06:41:13;;;;;;;16.38;12.60;;;;;;;;;;8298211;28;20524;-59
2023/04/17 06:45:13;;;;;;;18.13;11.93;;;;;;;;;;8301024;28;20034;-59
2023/04/17 06:49:13;;;;;;;13.70;11.50;;;;;;;;;;8298410;28;20092;-59
2023/04/17 06:53:14;;;;;;;15.23;11.82;;;;;;;;;;8301803;28;20025;-59
2023/04/17 06:57:15;;;;;;;15.20;12.47;;;;;;;;;;8297087;28;20025;-59
2023/04/17 07:01:15;;;;;;;17.02;12.07;;;;;;;;;;8297635;28;20267;-59
2023/04/17 07:05:16;;;;;;;15.82;12.48;;;;;;;;;;8295715;28;20100;-60
2023/04/17 07:09:16;;;;;;;19.48;13.25;;;;;;;;;;8295804;28;20066;-59
2023/04/17 07:13:16;;;;;;;18.73;12.97;;;;;;;;;;8288577;28;20438;-59
2023/04/17 07:17:16;;;;;;;16.90;13.20;;;;;;;;;;8296081;28;20335;-60
2023/04/17 07:21:17;;;;;;;19.77;12.73;;;;;;;;;;8295534;28;20593;-60
2023/04/17 07:25:18;;;;;;;19.73;13.18;;;;;;;;;;8298352;28;20288;-59
2023/04/17 07:29:18;;;;;;;16.63;13.85;;;;;;;;;;8300767;28;20033;-59
2023/04/17 07:33:19;;;;;;;18.75;14.13;;;;;;;;;;8297519;28;20033;-59
2023/04/17 07:37:20;;;;;;;18.00;14.20;;;;;;;;;;8296935;28;20018;-59
2023/04/17 07:41:20;;;;;;;17.85;13.50;;;;;;;;;;8296577;28;20030;-59
2023/04/17 07:45:20;;;;;;;18.38;13.38;;;;;;;;;;8296871;28;20211;-60
2023/04/17 07:49:20;;;;;;;14.18;12.15;;;;;;;;;;8296994;28;20040;-60
2023/04/17 07:53:24;;;;;;;15.57;11.98;;;;;;;;;;8296129;28;20021;-59
2023/04/17 07:57:25;;;;;;;15.05;12.00;;;;;;;;;;8297648;28;20690;-59
2023/04/17 08:01:26;;;;;;;14.35;11.55;;;;;;;;;;8296738;28;20488;-59
2023/04/17 08:05:26;;;;;;;12.73;10.77;;;;;;;;;;8296223;28;20032;-59
2023/04/17 08:09:27;;;;;;;17.33;11.15;;;;;;;;;;8294613;28;20029;-59
2023/04/17 08:13:28;;;;;;;15.82;12.38;;;;;;;;;;8295137;28;20029;-59
2023/04/17 08:17:29;;;;;;;12.98;10.52;;;;;;;;;;8297863;28;20124;-59
2023/04/17 08:21:30;;;;;;;14.15;11.25;;;;;;;;;;8296129;28;20028;-59
2023/04/17 08:25:30;;;;;;;13.77;10.52;;;;;;;;;;8297962;28;20045;-59
2023/04/17 08:29:30;;;;;;;12.70;10.10;;;;;;;;;;8296002;28;20106;-59
2023/04/17 08:33:31;;;;;;;12.68;9.20;;;;;;;;;;8293757;28;20208;-59
2023/04/17 08:37:31;;;;;;;11.75;9.48;;;;;;;;;;8292561;28;20365;-59
2023/04/17 08:41:38;;;;;;;11.05;9.25;;;;;;;;;;8292646;28;20028;-59
2023/04/17 08:45:40;;;;;;;10.73;8.95;;;;;;;;;;8293362;28;20045;-59
2023/04/17 08:49:42;;;;;;;12.38;9.65;;;;;;;;;;8292185;28;20025;-59
2023/04/17 08:53:42;;;;;;;11.95;9.15;;;;;;;;;;8294558;28;20021;-59
2023/04/17 08:58:13;;;;;;;9.88;8.40;;;;;;;;;;8295632;28;20025;-59
2023/04/17 09:02:13;;;;;;;12.88;9.30;;;;;;;;;;8281668;28;20055;-59
2023/04/17 09:06:14;;;;;;;9.90;7.43;;;;;;;;;;8296265;28;20051;-60
2023/04/17 09:10:15;;;;;;;10.32;8.32;;;;;;;;;;8295422;28;20045;-59
2023/04/17 09:14:41;;;;;;;9.65;8.13;;;;;;;;;;8292403;28;20048;-59
2023/04/17 09:18:42;;;;;;;10.65;8.00;;;;;;;;;;8290734;28;20069;-59
2023/04/17 09:22:42;;;;;;;11.25;7.50;;;;;;;;;;8292380;28;20029;-59
2023/04/17 09:26:42;;;;;;;9.35;7.75;;;;;;;;;;8296390;28;20022;-59
2023/04/17 09:30:42;;;;;;;10.50;7.72;;;;;;;;;;8294738;28;20048;-59
2023/04/17 09:34:42;;;;;;;7.63;6.60;;;;;;;;;;8295275;28;20947;-59
2023/04/17 09:38:43;;;;;;;7.25;6.55;;;;;;;;;;8294480;28;20705;-60
2023/04/17 09:42:52;;;;;;;10.90;6.88;;;;;;;;;;8296298;28;20022;-59
2023/04/17 09:46:53;;;;;;;8.50;7.32;;;;;;;;;;8291113;28;20029;-59
2023/04/17 09:50:54;;;;;;;9.35;7.25;;;;;;;;;;8292843;28;20018;-60
2023/04/17 09:54:54;;;;;;;8.73;7.07;;;;;;;;;;8294836;28;20113;-59
2023/04/17 09:58:56;;;;;;;8.65;7.72;;;;;;;;;;8292882;28;20035;-59
2023/04/17 10:02:57;;;;;;;8.95;7.28;;;;;;;;;;8291950;28;20144;-59
2023/04/17 10:06:57;;;;;;;10.60;7.70;;;;;;;;;;8295415;28;20033;-59
2023/04/17 10:11:04;;;;;;;8.93;6.93;;;;;;;;;;8290783;28;20084;-59
2023/04/17 10:15:06;;;;;;;9.35;8.35;;;;;;;;;;8276838;28;20545;-59
2023/04/17 10:19:26;;;;;;;12.68;9.40;;;;;;;;;;8294246;28;20108;-59
2023/04/17 10:23:28;;;;;;;11.40;8.98;;;;;;;;;;8292356;28;20038;-58
2023/04/17 10:27:28;;;;;;;13.25;10.35;;;;;;;;;;8295746;28;20087;-58
2023/04/17 10:31:47;;;;;;;11.88;10.27;;;;;;;;;;8295287;28;20041;-59
2023/04/17 10:35:47;;;;;;;13.05;10.93;;;;;;;;;;8293382;28;20132;-59
2023/04/17 10:39:55;;;;;;;12.93;10.00;;;;;;;;;;8294186;28;20025;-58
2023/04/17 10:43:56;;;;;;;13.80;10.40;;;;;;;;;;8292940;28;20271;-59
2023/04/17 10:47:59;;;;;;;12.02;9.82;;;;;;;;;;8292126;28;20216;-59
2023/04/17 10:51:59;;;;;;;12.57;9.97;;;;;;;;;;8293882;28;20155;-59
2023/04/17 10:56:01;;;;;;;11.32;9.48;;;;;;;;;;8299036;28;20020;-59
2023/04/17 11:00:11;;;;;;;14.52;9.57;;;;;;;;;;8298614;28;20025;-59
2023/04/17 11:04:17;;;;;;;11.68;9.13;;;;;;;;;;8332480;28;20645;-59
2023/04/17 11:08:17;;;;;;;12.45;8.75;;;;;;;;;;8328860;28;20493;-59
2023/04/17 11:12:17;;;;;;;11.93;9.52;;;;;;;;;;8330116;28;20075;-58
2023/04/17 11:16:21;;;;;;;11.82;10.02;;;;;;;;;;8327831;28;20037;-59
2023/04/17 11:20:22;;;;;;;14.05;10.75;;;;;;;;;;8325477;28;20035;-59
2023/04/17 11:24:25;;;;;;;14.50;11.05;;;;;;;;;;8321897;28;20029;-58
2023/04/17 11:28:26;;;;;;;14.07;10.88;;;;;;;;;;8330432;28;20025;-59
2023/04/17 11:32:34;;;;;;;12.50;10.38;;;;;;;;;;8326161;28;20563;-59
2023/04/17 11:36:34;;;;;;;15.73;10.20;;;;;;;;;;8323943;28;20059;-59
2023/04/17 11:40:34;;;;;;;14.02;10.60;;;;;;;;;;8324945;28;20029;-59
2023/04/17 11:44:34;;;;;;;12.18;9.82;;;;;;;;;;8324669;28;20118;-59
2023/04/17 11:48:35;;;;;;;12.02;9.77;;;;;;;;;;8329459;28;20029;-59
2023/04/17 11:52:35;;;;;;;12.00;10.30;;;;;;;;;;8321844;28;20135;-59
2023/04/17 11:56:35;;;;;;;13.02;10.25;;;;;;;;;;8321555;28;20028;-59
2023/04/17 12:00:37;;;;;;;14.40;11.00;;;;;;;;;;8324166;28;20883;-60
2023/04/17 12:04:38;;;;;;;11.60;9.55;;;;;;;;;;8325421;28;20025;-59
2023/04/17 12:08:49;;;;;;;11.15;9.13;;;;;;;;;;8325198;28;20477;-59
2023/04/17 12:12:49;;;;;;;12.55;9.30;;;;;;;;;;8317804;28;20574;-59
2023/04/17 12:16:50;;;;;;;10.85;8.43;;;;;;;;;;8321358;28;20037;-59
2023/04/17 12:20:51;;;;;;;12.05;8.95;;;;;;;;;;8322705;28;20478;-59
2023/04/17 12:24:51;;;;;;;9.82;8.25;;;;;;;;;;8317513;28;20412;-59
2023/04/17 12:28:51;;;;;;;11.02;9.15;;;;;;;;;;8318256;28;20028;-60
2023/04/17 12:32:52;;;;;;;9.93;7.88;;;;;;;;;;8322861;28;20044;-60
2023/04/17 12:36:52;;;;;;;9.65;8.18;;;;;;;;;;8319916;28;20499;-59
2023/04/17 12:40:52;;;;;;;8.70;7.50;;;;;;;;;;8320942;28;20025;-59
2023/04/17 12:44:52;;;;;;;6.00;5.10;;;;;;;;;;8323560;28;20473;-59
2023/04/17 12:48:58;;;;;;;4.72;3.70;;;;;;;;;;8321926;28;20035;-60
2023/04/17 12:52:58;;;;;;;5.13;2.97;;;;;;;;;;8310957;28;20516;-59
2023/04/17 12:56:58;;;;;;;4.78;3.85;;;;;;;;;;8323708;28;20022;-59
2023/04/17 13:00:58;;;;;;;3.75;3.38;;;;;;;;;;8323385;28;20137;-60
2023/04/17 13:04:58;;;;;;;6.38;3.13;;;;;;;;;;8324538;28;20115;-59
2023/04/17 13:08:59;;;;;;;4.00;2.50;;;;;;;;;;8321241;28;20029;-59
2023/04/17 13:13:01;;;;;;;3.03;2.72;;;;;;;;;;8321427;28;20136;-59
2023/04/17 13:17:01;;;;;;;2.90;1.90;;;;;;;;;;8327993;28;20037;-59
2023/04/17 13:21:01;;;;;;;3.92;2.25;;;;;;;;;;8324324;28;20863;-59
2023/04/17 13:25:02;;;;;;;4.30;2.80;;;;;;;;;;8320883;28;20025;-59
2023/04/17 13:29:02;;;;;;;3.20;2.90;;;;;;;;;;8322752;28;20059;-59
2023/04/17 13:33:02;;;;;;;3.50;2.83;;;;;;;;;;8327192;28;20072;-59
2023/04/17 13:37:02;;;;;;;6.40;2.65;;;;;;;;;;8322288;28;20028;-59
2023/04/17 13:41:02;;;;;;;6.30;2.70;;;;;;;;;;8326965;28;20056;-59
2023/04/17 13:45:03;;;;;;;4.95;2.90;;;;;;;;;;8323234;28;20048;-60
2023/04/17 13:49:03;;;;;;;5.18;2.75;;;;;;;;;;8327949;28;20036;-59
2023/04/17 13:53:04;;;;;;;2.75;2.42;;;;;;;;;;8324720;28;20098;-59
2023/04/17 13:57:05;;;;;;;6.35;2.63;;;;;;;;;;8330434;28;20123;-59
2023/04/17 14:01:06;;;;;;;2.80;2.42;;;;;;;;;;8324428;28;20037;-59
2023/04/17 14:05:06;;;;;;;2.58;2.30;;;;;;;;;;8327255;28;20138;-59
2023/04/17 14:09:06;;;;;;;3.03;2.83;;;;;;;;;;8318877;28;20025;-58
2023/04/17 14:13:07;;;;;;;2.95;2.63;;;;;;;;;;8325303;28;20556;-59
2023/04/17 14:17:07;;;;;;;2.55;2.35;;;;;;;;;;8321895;28;20440;-59
2023/04/17 14:21:07;;;;;;;3.47;2.50;;;;;;;;;;8321416;28;20660;-59
2023/04/17 14:25:08;;;;;;;2.50;2.30;;;;;;;;;;8329485;28;20432;-59
2023/04/17 14:29:12;;;;;;;2.60;2.40;;;;;;;;;;8328838;28;20021;-59
2023/04/17 14:33:12;;;;;;;;;;;;;;;;;;8333952;28;20232;-59
2023/04/17 14:37:12;;;;;;;3.23;2.33;;;;;;;;;;8334550;28;19912;-59
2023/04/17 14:41:12;;;;;;;2.72;2.42;;;;;;;;;;8334034;28;20271;-59
2023/04/17 14:45:13;;;;;;;2.67;2.47;;;;;;;;;;8330241;28;20481;-59
2023/04/17 14:49:13;;;;;;;2.40;2.20;;;;;;;;;;8332260;28;20879;-58
2023/04/17 14:53:13;;;;;;;4.18;2.63;;;;;;;;;;8327606;28;20036;-58
2023/04/17 14:57:14;;;;;;;3.95;3.10;;;;;;;;;;8328840;28;20021;-59
2023/04/17 15:01:14;;;;;;;4.28;2.85;;;;;;;;;;8326423;28;20036;-60
2023/04/17 15:05:17;;;;;;;3.93;3.00;;;;;;;;;;8327365;28;20021;-59
2023/04/17 15:09:17;;;;;;;3.67;3.00;;;;;;;;;;8321582;28;20355;-59
2023/04/17 15:13:18;;;;;;;5.05;3.05;;;;;;;;;;8321412;28;20508;-59
2023/04/17 15:17:18;;;;;;;4.07;3.00;;;;;;;;;;8322562;28;20039;-59
2023/04/17 15:21:18;;;;;;;3.50;3.20;;;;;;;;;;8322166;28;20071;-59
2023/04/17 15:25:19;;;;;;;4.47;2.85;;;;;;;;;;8326209;28;20545;-58
2023/04/17 15:29:19;;;;;;;4.30;2.95;;;;;;;;;;8325202;28;20064;-59
2023/04/17 15:33:19;;;;;;;4.90;3.10;;;;;;;;;;8325271;28;20485;-59
2023/04/17 15:37:20;;;;;;;5.65;3.33;;;;;;;;;;8326167;28;20769;-58
2023/04/17 15:41:20;;;;;;;4.97;3.20;;;;;;;;;;8324172;28;20402;-58
2023/04/17 15:45:20;;;;;;;3.22;2.83;;;;;;;;;;8326282;28;20432;-59
2023/04/17 15:49:20;;;;;;;4.15;2.90;;;;;;;;;;8322459;28;20056;-58
2023/04/17 15:53:20;;;;;;;4.60;2.90;;;;;;;;;;8325402;28;20033;-59
2023/04/17 15:57:22;;;;;;;5.78;3.00;;;;;;;;;;8325725;28;20546;-58
2023/04/17 16:01:22;;;;;;;3.75;2.80;;;;;;;;;;8321391;28;20520;-58
2023/04/17 16:05:22;;;;;;;5.32;2.85;;;;;;;;;;8326114;28;20616;-59
2023/04/17 16:09:23;;;;;;;3.88;2.58;;;;;;;;;;8320864;28;20021;-58
2023/04/17 16:13:23;;;;;;;3.92;2.90;;;;;;;;;;8322419;28;20024;-59
2023/04/17 16:17:23;;;;;;;3.88;3.10;;;;;;;;;;8323710;28;20053;-58
2023/04/17 16:21:23;;;;;;;4.95;3.00;;;;;;;;;;8321868;28;20155;-58
2023/04/17 16:25:23;;;;;;;3.30;3.03;;;;;;;;;;8324088;28;20044;-58
2023/04/17 16:29:24;;;;;;;3.80;3.00;;;;;;;;;;8320833;28;20024;-58
2023/04/17 16:33:24;;;;;;;3.33;2.60;;;;;;;;;;8323285;28;20059;-58
2023/04/17 16:37:24;;;;;;;3.22;2.67;;;;;;;;;;8323353;28;20417;-58
2023/04/17 16:41:24;;;;;;;3.10;2.80;;;;;;;;;;8308632;28;20044;-59
2023/04/17 16:45:24;;;;;;;6.18;2.80;;;;;;;;;;8323423;28;20058;-59
2023/04/17 16:49:25;;;;;;;4.32;2.80;;;;;;;;;;8316739;28;20495;-59
2023/04/17 16:53:25;;;;;;;3.85;2.80;;;;;;;;;;8323691;28;20596;-59
2023/04/17 16:57:25;;;;;;;3.80;2.80;;;;;;;;;;8319566;28;20030;-59
2023/04/17 17:01:25;;;;;;;4.85;2.72;;;;;;;;;;8322061;28;20037;-59
2023/04/17 17:05:25;;;;;;;3.65;3.00;;;;;;;;;;8324606;28;20035;-59
2023/04/17 17:09:26;;;;;;;5.20;3.00;;;;;;;;;;8320453;28;20626;-59
2023/04/17 17:13:26;;;;;;;3.35;2.75;;;;;;;;;;8325423;28;20135;-59
2023/04/17 17:17:26;;;;;;;4.43;2.83;;;;;;;;;;8318918;28;20036;-59
2023/04/17 17:21:27;;;;;;;4.05;2.70;;;;;;;;;;8320259;28;20281;-59
2023/04/17 17:25:27;;;;;;;7.72;3.05;;;;;;;;;;8322282;28;20036;-59
2023/04/17 17:29:27;;;;;;;4.60;2.80;;;;;;;;;;8312902;28;20035;-59
2023/04/17 17:33:28;;;;;;;3.67;2.60;;;;;;;;;;8316421;28;20028;-59
2023/04/17 17:37:28;;;;;;;4.07;2.65;;;;;;;;;;8312899;28;20556;-59
2023/04/17 17:41:28;;;;;;;4.90;3.10;;;;;;;;;;8315519;28;20035;-59
2023/04/17 17:45:29;;;;;;;3.85;2.78;;;;;;;;;;8316012;28;20353;-58
2023/04/17 17:49:29;;;;;;;4.53;2.95;;;;;;;;;;8314241;28;20025;-59
2023/04/17 17:53:29;;;;;;;4.90;3.20;;;;;;;;;;8317341;28;20266;-60
2023/04/17 17:57:29;;;;;;;3.63;3.05;;;;;;;;;;8318779;28;20037;-60
2023/04/17 18:01:30;;;;;;;5.03;3.03;;;;;;;;;;8326098;28;20033;-59
2023/04/17 18:05:30;;;;;;;2.85;2.65;;;;;;;;;;8322887;28;20013;-59
2023/04/17 18:09:30;;;;;;;4.13;2.78;;;;;;;;;;8321582;28;21329;-60
2023/04/17 18:13:30;;;;;;;5.13;2.92;;;;;;;;;;8321542;28;20235;-59
2023/04/17 18:17:31;;;;;;;5.80;3.00;;;;;;;;;;8319845;28;20329;-60
2023/04/17 18:21:31;;;;;;;8.77;3.57;;;;;;;;;;8321246;28;20386;-60
2023/04/17 18:25:31;;;;;;;5.20;3.28;;;;;;;;;;8320532;28;20283;-59
2023/04/17 18:29:32;;;;;;;4.20;3.07;;;;;;;;;;8320276;28;20636;-59
2023/04/17 18:33:32;;;;;;;4.80;3.30;;;;;;;;;;8320842;28;20037;-60
2023/04/17 18:37:32;;;;;;;7.32;3.33;;;;;;;;;;8320623;28;20487;-59
2023/04/17 18:41:33;;;;;;;5.27;3.20;;;;;;;;;;8324270;28;20512;-59
2023/04/17 18:45:33;;;;;;;7.00;3.55;;;;;;;;;;8318895;28;20905;-59
2023/04/17 18:49:33;;;;;;;4.05;3.22;;;;;;;;;;8322813;28;20024;-59
2023/04/17 18:53:34;;;;;;;5.63;3.47;;;;;;;;;;8321378;28;20852;-60
2023/04/17 18:57:35;;;;;;;3.57;2.93;;;;;;;;;;8316638;28;20771;-59
2023/04/17 19:01:36;;;;;;;5.47;3.08;;;;;;;;;;8322156;28;20796;-59
2023/04/17 19:05:36;;;;;;;8.30;3.33;;;;;;;;;;8321041;28;20416;-59
2023/04/17 19:09:36;;;;;;;5.70;3.45;;;;;;;;;;8321261;28;20024;-59
2023/04/17 19:13:36;;;;;;;7.25;3.30;;;;;;;;;;8319225;28;20111;-59
2023/04/17 19:17:37;;;;;;;6.90;3.08;;;;;;;;;;8321723;28;20037;-60
2023/04/17 19:21:37;;;;;;;5.28;3.30;;;;;;;;;;8315728;28;20028;-59
2023/04/17 19:25:37;;;;;;;7.38;3.50;;;;;;;;;;8318152;28;20029;-59
2023/04/17 19:29:37;;;;;;;6.03;3.30;;;;;;;;;;8322414;28;20041;-59
2023/04/17 19:33:38;;;;;;;3.93;3.03;;;;;;;;;;8293962;28;20795;-59
2023/04/17 19:37:38;;;;;;;7.70;3.20;;;;;;;;;;8294440;28;20681;-59
2023/04/17 19:41:38;;;;;;;8.90;3.45;;;;;;;;;;8296092;28;20553;-60
2023/04/17 19:45:40;;;;;;;6.40;3.65;;;;;;;;;;8293333;28;20119;-59
2023/04/17 19:49:42;;;;;;;6.90;3.33;;;;;;;;;;8291556;28;20932;-59
2023/04/17 19:53:43;;;;;;;7.20;3.90;;;;;;;;;;8290796;28;20566;-59
2023/04/17 19:57:43;;;;;;;5.10;3.65;;;;;;;;;;8291760;28;20036;-59
2023/04/17 20:01:43;;;;;;;4.90;3.50;;;;;;;;;;8292394;28;20029;-60
2023/04/17 20:05:44;;;;;;;4.95;3.78;;;;;;;;;;8291231;28;20440;-59
2023/04/17 20:09:44;;;;;;;7.57;3.47;;;;;;;;;;8292750;28;20037;-59
2023/04/17 20:13:45;;;;;;;4.32;3.60;;;;;;;;;;8290952;28;20960;-59
2023/04/17 20:17:45;;;;;;;5.03;3.42;;;;;;;;;;8289135;28;20731;-60
2023/04/17 20:21:45;;;;;;;6.00;3.65;;;;;;;;;;8289695;28;20029;-59
2023/04/17 20:25:46;;;;;;;5.15;3.53;;;;;;;;;;8291550;28;20574;-59
2023/04/17 20:29:46;;;;;;;6.77;3.30;;;;;;;;;;8295391;28;20026;-59
2023/04/17 20:33:46;;;;;;;5.35;3.65;;;;;;;;;;8291806;28;20046;-59
2023/04/17 20:37:46;;;;;;;6.15;3.55;;;;;;;;;;8289398;28;20071;-59
2023/04/17 20:41:46;;;;;;;5.95;3.65;;;;;;;;;;8297788;28;20018;-59
2023/04/17 20:45:53;;;;;;;5.40;3.50;;;;;;;;;;8370086;27;20462;-59
2023/04/17 20:49:53;;;;;;;5.45;3.40;;;;;;;;;;8321538;28;20021;-59
2023/04/17 20:53:53;;;;;;;7.07;3.58;;;;;;;;;;8321592;28;20035;-59
2023/04/17 20:57:54;;;;;;;5.57;3.90;;;;;;;;;;8320977;28;20207;-60
2023/04/17 21:01:54;;;;;;;6.03;3.78;;;;;;;;;;8321607;28;20114;-60
2023/04/17 21:05:54;;;;;;;5.45;3.50;;;;;;;;;;8319915;28;20555;-59
2023/04/17 21:09:54;;;;;;;6.13;3.55;;;;;;;;;;8320038;28;20027;-59
2023/04/17 21:13:57;;;;;;;10.88;3.75;;;;;;;;;;8323798;28;20028;-59
2023/04/17 21:17:57;;;;;;;6.55;4.07;;;;;;;;;;8321550;28;20041;-59
2023/04/17 21:21:57;;;;;;;9.93;4.40;;;;;;;;;;8319018;28;20021;-59
2023/04/17 21:25:57;;;;;;;10.85;4.03;;;;;;;;;;8323369;28;20311;-59
2023/04/17 21:29:58;;;;;;;9.82;3.72;;;;;;;;;;8321089;28;20512;-59
2023/04/17 21:33:59;;;;;;;6.65;3.95;;;;;;;;;;8318849;28;20681;-59
2023/04/17 21:37:59;;;;;;;6.93;4.00;;;;;;;;;;8321560;28;20345;-60
2023/04/17 21:41:59;;;;;;;6.70;4.00;;;;;;;;;;8321185;28;20025;-59
2023/04/17 21:45:59;;;;;;;6.95;4.15;;;;;;;;;;8319945;28;21343;-60
2023/04/17 21:49:59;;;;;;;8.98;4.10;;;;;;;;;;8320018;28;20099;-59
2023/04/17 21:54:00;;;;;;;5.40;3.63;;;;;;;;;;8317162;28;20864;-59
2023/04/17 21:58:00;;;;;;;8.52;4.13;;;;;;;;;;8297328;28;20029;-59
2023/04/17 22:02:00;;;;;;;6.70;4.30;;;;;;;;;;8298719;28;20207;-59
2023/04/17 22:06:00;;;;;;;10.02;4.30;;;;;;;;;;8295989;28;20099;-60
2023/04/17 22:10:02;;;;;;;5.32;3.80;;;;;;;;;;8299637;28;20410;-59
2023/04/17 22:14:02;;;;;;;7.53;3.88;;;;;;;;;;8296610;28;20041;-59
2023/04/17 22:18:02;;;;;;;5.28;3.72;;;;;;;;;;8296871;28;20033;-60
2023/04/17 22:22:02;;;;;;;8.32;4.30;;;;;;;;;;8293845;28;20057;-60
2023/04/17 22:26:02;;;;;;;7.45;4.35;;;;;;;;;;8297251;28;20709;-59
2023/04/17 22:30:04;;;;;;;10.98;4.68;;;;;;;;;;8290685;28;20029;-60
2023/04/17 22:34:04;;;;;;;10.95;4.60;;;;;;;;;;8296153;28;20017;-59
2023/04/17 22:38:05;;;;;;;7.45;4.32;;;;;;;;;;8296194;28;20028;-60
2023/04/17 22:42:05;;;;;;;13.32;4.93;;;;;;;;;;8301711;28;20958;-60
2023/04/17 22:46:05;;;;;;;4.65;3.80;;;;;;;;;;8298367;28;20033;-59
2023/04/17 22:50:06;;;;;;;7.40;4.38;;;;;;;;;;8298415;28;20132;-60
2023/04/17 22:54:06;;;;;;;5.50;4.15;;;;;;;;;;8298343;28;20032;-59
2023/04/17 22:58:06;;;;;;;7.75;4.18;;;;;;;;;;8295765;28;20036;-59
2023/04/17 23:02:06;;;;;;;5.82;4.07;;;;;;;;;;8299609;28;20609;-60
2023/04/17 23:06:07;;;;;;;10.80;4.60;;;;;;;;;;8296818;28;20013;-59
2023/04/17 23:10:07;;;;;;;6.53;4.18;;;;;;;;;;8298350;28;20036;-59
2023/04/17 23:14:09;;;;;;;10.02;4.30;;;;;;;;;;8295782;28;20068;-59
2023/04/17 23:18:10;;;;;;;6.57;4.45;;;;;;;;;;8294295;28;20034;-59
2023/04/17 23:22:10;;;;;;;8.03;4.83;;;;;;;;;;8293581;28;20035;-59
2023/04/17 23:26:10;;;;;;;4.82;4.35;;;;;;;;;;8297056;28;20276;-59
2023/04/17 23:30:11;;;;;;;6.25;4.25;;;;;;;;;;8296857;28;20666;-60
2023/04/17 23:34:11;;;;;;;6.75;4.20;;;;;;;;;;8295837;28;20391;-59
2023/04/17 23:38:11;;;;;;;6.60;4.55;;;;;;;;;;8296393;28;20037;-59
2023/04/17 23:42:11;;;;;;;7.25;4.10;;;;;;;;;;8299177;28;20044;-58
2023/04/17 23:46:11;;;;;;;8.00;4.28;;;;;;;;;;8295390;28;20095;-58